CPX214 Details

Departure: Benito Juárez International Airport (MMMX) at 0600 UTC
Arrival: Don Miguel Hidalgo y Costilla International Airport (MMGL) at 0700 UTC
Route: TLC6A TLC UJ18 UPN UJ3 ONGEL ONGEL1A


Current Weather Information
MMMX 232151Z 31008KT 7SM SCT020 29/00 A3015 NOSIG RMK 8/200 HZY TCU E SE S
MMGL 232142Z 30012KT 7SM SKC 32/M05 A3002 RMK HZ FU